Time;durP1;ratioP1;P1;durP2;ratioP2;P2;SDS_P1;SDS_P2;PMS_P1;PMS_P2;Temp;Humidity;BMP_temperature;BMP_pressure;BME280_temperature;BME280_humidity;BME280_pressure;Samples;Min_cycle;Max_cycle;Signal;HPM_P1;HPM_P2
2022/12/29 00:02:08;;;;;;;7.83;6.80;;;;;;;;;;5074839;28;20282;-86
2022/12/29 00:04:35;;;;;;;8.40;6.00;;;;;;;;;;5074851;28;20298;-84
2022/12/29 00:07:04;;;;;;;8.67;5.63;;;;;;;;;;5040696;28;20322;-84
2022/12/29 00:09:30;;;;;;;7.03;5.20;;;;;;;;;;5075026;28;20271;-84
2022/12/29 00:11:57;;;;;;;6.20;5.07;;;;;;;;;;5074764;28;20329;-84
2022/12/29 00:17:08;;;;;;;7.82;5.40;;;;;;;;;;5074889;28;20279;-83
2022/12/29 00:36:04;;;;;;;8.53;4.83;;;;;;;;;;5074219;28;20056;-84
2022/12/29 00:44:04;;;;;;;7.43;4.97;;;;;;;;;;5074155;28;20357;-83
2022/12/29 00:46:31;;;;;;;7.03;5.40;;;;;;;;;;5056418;28;20127;-84
2022/12/29 00:51:42;;;;;;;7.78;4.75;;;;;;;;;;5072786;28;20396;-84
2022/12/29 00:54:08;;;;;;;6.53;4.00;;;;;;;;;;5074150;28;20477;-83
2022/12/29 00:56:34;;;;;;;5.60;3.90;;;;;;;;;;5074133;28;20347;-85
2022/12/29 00:59:02;;;;;;;6.77;4.43;;;;;;;;;;5073907;28;20728;-83
2022/12/29 01:01:28;;;;;;;6.67;4.30;;;;;;;;;;5073864;28;20786;-85
2022/12/29 01:03:54;;;;;;;8.10;4.63;;;;;;;;;;5073726;28;20322;-85
2022/12/29 01:06:20;;;;;;;7.57;4.20;;;;;;;;;;5055813;28;20415;-84
2022/12/29 01:08:46;;;;;;;6.93;4.17;;;;;;;;;;5055998;28;20382;-85
2022/12/29 01:11:13;;;;;;;6.23;4.30;;;;;;;;;;5073616;28;20364;-84
2022/12/29 01:13:42;;;;;;;7.77;4.40;;;;;;;;;;5055638;28;20416;-85
2022/12/29 01:16:08;;;;;;;5.90;4.20;;;;;;;;;;5074066;28;20287;-86
2022/12/29 01:18:34;;;;;;;7.07;4.70;;;;;;;;;;5055841;28;20356;-86
2022/12/29 01:21:01;;;;;;;6.73;4.40;;;;;;;;;;5055895;28;20785;-86
2022/12/29 01:23:28;;;;;;;6.93;4.43;;;;;;;;;;5073206;28;20837;-85
2022/12/29 01:25:54;;;;;;;6.73;4.53;;;;;;;;;;5056007;28;20677;-85
2022/12/29 01:28:20;;;;;;;6.63;4.93;;;;;;;;;;5073134;28;20730;-86
2022/12/29 01:30:46;;;;;;;7.33;5.00;;;;;;;;;;5073373;28;20279;-85
2022/12/29 01:33:12;;;;;;;8.13;4.67;;;;;;;;;;5073183;28;20290;-86
2022/12/29 01:35:38;;;;;;;7.90;5.13;;;;;;;;;;5039012;28;20294;-85
2022/12/29 01:38:05;;;;;;;8.67;5.40;;;;;;;;;;5073740;28;20274;-85
2022/12/29 01:40:31;;;;;;;7.13;5.50;;;;;;;;;;5073761;28;20313;-86
2022/12/29 01:42:57;;;;;;;10.00;5.53;;;;;;;;;;5073368;28;20275;-85
2022/12/29 01:45:23;;;;;;;9.10;5.83;;;;;;;;;;5054673;28;20283;-85
2022/12/29 01:47:52;;;;;;;8.10;5.47;;;;;;;;;;5073274;28;20798;-86
2022/12/29 01:50:23;;;;;;;8.27;5.70;;;;;;;;;;5073121;28;20283;-85
2022/12/29 01:53:13;;;;;;;8.03;5.90;;;;;;;;;;5073734;28;20671;-85
2022/12/29 01:55:48;;;;;;;9.07;6.93;;;;;;;;;;5060324;28;20298;-85
2022/12/29 01:58:16;;;;;;;8.67;6.87;;;;;;;;;;5073527;28;20320;-85
2022/12/29 02:00:42;;;;;;;8.80;7.00;;;;;;;;;;5073627;28;20366;-85
2022/12/29 02:03:09;;;;;;;9.77;6.80;;;;;;;;;;5073132;28;20289;-85
2022/12/29 02:05:57;;;;;;;9.23;6.63;;;;;;;;;;5073783;28;20381;-84
2022/12/29 02:08:25;;;;;;;7.93;5.53;;;;;;;;;;5039036;28;20352;-85
2022/12/29 02:10:51;;;;;;;10.77;6.07;;;;;;;;;;5073263;28;20384;-84
2022/12/29 02:13:17;;;;;;;9.53;5.93;;;;;;;;;;5072931;28;20279;-84
2022/12/29 02:15:49;;;;;;;10.53;6.30;;;;;;;;;;5072936;28;20375;-84
2022/12/29 02:18:36;;;;;;;8.13;6.00;;;;;;;;;;5055443;28;20735;-83
2022/12/29 02:21:14;;;;;;;10.03;5.97;;;;;;;;;;5072966;28;20287;-85
2022/12/29 02:24:03;;;;;;;7.47;5.60;;;;;;;;;;5072929;28;20368;-84
2022/12/29 02:26:50;;;;;;;7.93;5.40;;;;;;;;;;5059758;28;20298;-84
2022/12/29 02:29:22;;;;;;;7.93;4.80;;;;;;;;;;5071538;28;20369;-84
2022/12/29 02:32:08;;;;;;;8.93;4.63;;;;;;;;;;5073365;28;20366;-84
2022/12/29 02:34:46;;;;;;;7.93;4.00;;;;;;;;;;5072756;28;20671;-84
2022/12/29 02:37:39;;;;;;;8.07;4.00;;;;;;;;;;5055454;28;20319;-84
2022/12/29 02:40:08;;;;;;;7.00;3.57;;;;;;;;;;5068882;28;20339;-84
2022/12/29 02:42:37;;;;;;;6.37;3.60;;;;;;;;;;5072932;28;20497;-85
2022/12/29 02:45:03;;;;;;;5.73;3.40;;;;;;;;;;5072555;28;20370;-84
2022/12/29 02:47:29;;;;;;;6.13;3.03;;;;;;;;;;5055256;28;20322;-84
2022/12/29 02:50:03;;;;;;;6.00;2.87;;;;;;;;;;5072966;28;20427;-85
2022/12/29 02:52:32;;;;;;;4.53;2.23;;;;;;;;;;5054715;28;20454;-85
2022/12/29 02:54:59;;;;;;;5.73;2.37;;;;;;;;;;5072959;28;20650;-85
2022/12/29 02:57:25;;;;;;;5.50;1.90;;;;;;;;;;5074960;28;20315;-85
2022/12/29 02:59:58;;;;;;;5.13;2.53;;;;;;;;;;5075646;28;20763;-85
2022/12/29 03:02:42;;;;;;;6.47;2.30;;;;;;;;;;5076350;28;20274;-85
2022/12/29 03:05:11;;;;;;;4.37;1.80;;;;;;;;;;5076295;28;20279;-85
2022/12/29 03:07:40;;;;;;;5.63;2.20;;;;;;;;;;5076702;28;20326;-84
2022/12/29 03:10:16;;;;;;;6.93;2.10;;;;;;;;;;5075889;28;20326;-84
2022/12/29 03:18:30;;;;;;;9.27;2.70;;;;;;;;;;5076274;28;20647;-84
2022/12/29 03:20:58;;;;;;;9.13;2.27;;;;;;;;;;5076283;28;20809;-85
2022/12/29 03:23:25;;;;;;;6.20;1.80;;;;;;;;;;5075748;28;20287;-85
2022/12/29 03:25:53;;;;;;;5.30;2.00;;;;;;;;;;5058778;28;20294;-85
2022/12/29 03:28:22;;;;;;;8.57;2.00;;;;;;;;;;5041307;28;20366;-82
2022/12/29 03:30:49;;;;;;;4.07;1.57;;;;;;;;;;5075786;28;20290;-85
2022/12/29 03:33:17;;;;;;;6.67;2.13;;;;;;;;;;5057553;28;20794;-86
2022/12/29 03:35:44;;;;;;;4.20;1.63;;;;;;;;;;5075377;28;20746;-85
2022/12/29 03:38:19;;;;;;;4.00;1.70;;;;;;;;;;5075668;28;20580;-85
2022/12/29 03:40:59;;;;;;;5.35;1.65;;;;;;;;;;5057937;28;20326;-85
2022/12/29 03:43:26;;;;;;;6.77;1.60;;;;;;;;;;5075226;28;20062;-86
2022/12/29 03:45:53;;;;;;;7.87;2.10;;;;;;;;;;5075284;28;20279;-85
2022/12/29 03:48:19;;;;;;;6.57;1.93;;;;;;;;;;5074897;28;20650;-86
2022/12/29 03:50:45;;;;;;;6.23;1.70;;;;;;;;;;5057405;28;20314;-86
2022/12/29 03:53:11;;;;;;;7.33;1.83;;;;;;;;;;5040602;28;20326;-86
2022/12/29 03:55:37;;;;;;;6.90;2.17;;;;;;;;;;5057444;28;20326;-84
2022/12/29 03:58:03;;;;;;;8.93;1.80;;;;;;;;;;5057372;28;20367;-85
2022/12/29 04:00:29;;;;;;;7.33;2.10;;;;;;;;;;5056902;28;20309;-85
2022/12/29 04:02:55;;;;;;;5.70;1.50;;;;;;;;;;5074871;28;20361;-86
2022/12/29 04:05:21;;;;;;;10.47;2.37;;;;;;;;;;5057270;28;20370;-86
2022/12/29 04:07:48;;;;;;;7.83;1.90;;;;;;;;;;5074208;28;20336;-85
2022/12/29 04:10:14;;;;;;;8.17;1.60;;;;;;;;;;5057669;28;20354;-86
2022/12/29 04:12:41;;;;;;;6.87;1.57;;;;;;;;;;5056684;28;20349;-85
2022/12/29 04:15:08;;;;;;;8.20;1.60;;;;;;;;;;5074615;28;20282;-86
2022/12/29 04:17:34;;;;;;;6.73;1.70;;;;;;;;;;5074621;28;20315;-86
2022/12/29 04:22:46;;;;;;;6.23;1.40;;;;;;;;;;5032942;28;20291;-85
2022/12/29 04:25:12;;;;;;;7.03;1.73;;;;;;;;;;5074385;28;20283;-86
2022/12/29 04:27:38;;;;;;;7.40;1.97;;;;;;;;;;5074275;28;20289;-86
2022/12/29 04:30:05;;;;;;;10.57;2.00;;;;;;;;;;5074811;28;20364;-86
2022/12/29 04:32:31;;;;;;;10.57;2.03;;;;;;;;;;5074201;28;20447;-85
2022/12/29 04:34:57;;;;;;;11.47;2.10;;;;;;;;;;5056367;28;20295;-85
2022/12/29 04:37:23;;;;;;;16.77;2.67;;;;;;;;;;5074174;28;20290;-85
2022/12/29 04:39:49;;;;;;;12.63;2.50;;;;;;;;;;5056451;28;20313;-85
2022/12/29 04:42:15;;;;;;;9.03;1.87;;;;;;;;;;5074132;28;20328;-86
2022/12/29 04:44:41;;;;;;;9.50;1.73;;;;;;;;;;5040765;28;20370;-84
2022/12/29 04:47:07;;;;;;;11.03;1.70;;;;;;;;;;5074035;28;20368;-86
2022/12/29 04:49:34;;;;;;;9.37;1.80;;;;;;;;;;5073970;28;20275;-84
2022/12/29 04:52:00;;;;;;;11.20;1.77;;;;;;;;;;5074494;28;20279;-85
2022/12/29 04:54:26;;;;;;;10.63;2.13;;;;;;;;;;5055842;28;20291;-86
2022/12/29 04:56:52;;;;;;;14.57;2.10;;;;;;;;;;5056454;28;20646;-86
2022/12/29 04:59:18;;;;;;;12.53;2.70;;;;;;;;;;5073744;28;20306;-84
2022/12/29 05:01:44;;;;;;;9.93;1.87;;;;;;;;;;5055697;28;20323;-85
2022/12/29 05:04:10;;;;;;;13.33;2.20;;;;;;;;;;5073697;28;20314;-84
2022/12/29 05:06:36;;;;;;;10.43;1.90;;;;;;;;;;5073601;28;20283;-85
2022/12/29 05:09:02;;;;;;;14.77;2.63;;;;;;;;;;5074135;28;20307;-85
2022/12/29 05:11:29;;;;;;;14.07;2.60;;;;;;;;;;5073567;28;20290;-84
2022/12/29 05:13:55;;;;;;;14.57;2.23;;;;;;;;;;5073543;28;20361;-85
2022/12/29 05:16:21;;;;;;;16.70;2.43;;;;;;;;;;5073815;28;20365;-84
2022/12/29 05:18:47;;;;;;;13.57;2.40;;;;;;;;;;5073451;28;20305;-84
2022/12/29 05:21:13;;;;;;;15.00;2.37;;;;;;;;;;5055927;28;20344;-85
2022/12/29 05:23:39;;;;;;;14.20;1.90;;;;;;;;;;5073287;28;20339;-84
2022/12/29 05:26:05;;;;;;;14.20;2.93;;;;;;;;;;5073413;28;20287;-84
2022/12/29 05:28:31;;;;;;;11.50;3.07;;;;;;;;;;5073640;28;20608;-85
2022/12/29 05:30:58;;;;;;;15.03;2.83;;;;;;;;;;5056394;28;20283;-84
2022/12/29 05:33:24;;;;;;;13.77;2.83;;;;;;;;;;5073360;28;20306;-85
2022/12/29 05:35:50;;;;;;;13.70;2.10;;;;;;;;;;5056386;28;20404;-83
2022/12/29 05:38:16;;;;;;;14.93;2.83;;;;;;;;;;5073345;28;20286;-84
2022/12/29 05:40:43;;;;;;;12.47;2.50;;;;;;;;;;5039293;28;20752;-84
2022/12/29 05:43:09;;;;;;;16.37;3.23;;;;;;;;;;5073268;28;20282;-83
2022/12/29 05:45:36;;;;;;;11.47;2.77;;;;;;;;;;5073964;28;20358;-84
2022/12/29 05:48:02;;;;;;;12.47;2.70;;;;;;;;;;5073210;28;20275;-85
2022/12/29 05:50:28;;;;;;;12.80;2.60;;;;;;;;;;5073222;28;20275;-84
2022/12/29 05:52:55;;;;;;;16.73;3.03;;;;;;;;;;5055011;28;20294;-84
2022/12/29 05:55:21;;;;;;;12.97;2.70;;;;;;;;;;5055428;28;20289;-85
2022/12/29 05:57:47;;;;;;;15.60;3.00;;;;;;;;;;5073116;28;20326;-85
2022/12/29 06:00:14;;;;;;;13.03;2.50;;;;;;;;;;5072872;28;20302;-85
2022/12/29 06:02:40;;;;;;;16.53;3.17;;;;;;;;;;5072995;28;20282;-83
2022/12/29 06:05:06;;;;;;;13.90;2.80;;;;;;;;;;5055463;28;20297;-84
2022/12/29 06:07:32;;;;;;;15.40;3.03;;;;;;;;;;5072970;28;20283;-84
2022/12/29 06:09:58;;;;;;;13.30;2.57;;;;;;;;;;5073290;28;20282;-84
2022/12/29 06:12:24;;;;;;;14.90;3.10;;;;;;;;;;5055205;28;20287;-85
2022/12/29 06:14:50;;;;;;;14.10;2.70;;;;;;;;;;5072508;28;20794;-85
2022/12/29 06:17:16;;;;;;;17.00;2.80;;;;;;;;;;5073398;28;20283;-84
2022/12/29 06:19:43;;;;;;;19.13;3.60;;;;;;;;;;5072692;28;20295;-83
2022/12/29 06:22:11;;;;;;;16.77;3.40;;;;;;;;;;5054637;28;20850;-84
2022/12/29 06:24:38;;;;;;;20.17;3.83;;;;;;;;;;5054851;28;20362;-86
2022/12/29 06:27:04;;;;;;;19.47;3.17;;;;;;;;;;5072738;28;20315;-85
2022/12/29 06:29:30;;;;;;;18.57;3.40;;;;;;;;;;5072666;28;20307;-85
2022/12/29 06:31:57;;;;;;;19.40;3.50;;;;;;;;;;5074174;28;20374;-85
2022/12/29 06:34:24;;;;;;;17.90;3.80;;;;;;;;;;5076422;28;20768;-85
2022/12/29 06:36:50;;;;;;;18.40;3.43;;;;;;;;;;5076315;28;20282;-84
2022/12/29 06:39:16;;;;;;;22.27;3.40;;;;;;;;;;5076298;28;20838;-84
2022/12/29 06:41:42;;;;;;;16.30;3.67;;;;;;;;;;5076916;28;20332;-84
2022/12/29 06:44:08;;;;;;;19.17;3.37;;;;;;;;;;5076526;28;20275;-84
2022/12/29 06:46:35;;;;;;;19.50;4.13;;;;;;;;;;5076490;28;20344;-85
2022/12/29 06:49:01;;;;;;;20.77;3.17;;;;;;;;;;5076133;28;20317;-85
2022/12/29 06:51:27;;;;;;;18.37;3.47;;;;;;;;;;5058524;28;20330;-85
2022/12/29 06:53:54;;;;;;;15.43;2.90;;;;;;;;;;5076068;28;20302;-85
2022/12/29 06:56:20;;;;;;;18.27;2.83;;;;;;;;;;5076542;28;20687;-84
2022/12/29 06:58:46;;;;;;;19.60;4.53;;;;;;;;;;5058006;28;20386;-84
2022/12/29 07:01:12;;;;;;;18.47;3.30;;;;;;;;;;5058316;28;20362;-86
2022/12/29 07:03:39;;;;;;;19.90;3.27;;;;;;;;;;5058515;28;20626;-84
2022/12/29 07:06:05;;;;;;;20.77;3.93;;;;;;;;;;5075820;28;20279;-84
2022/12/29 07:08:31;;;;;;;17.60;3.90;;;;;;;;;;5058164;28;20385;-85
2022/12/29 07:10:57;;;;;;;18.70;3.53;;;;;;;;;;5076269;28;20322;-85
2022/12/29 07:13:24;;;;;;;19.10;3.73;;;;;;;;;;5058111;28;20739;-83
2022/12/29 07:15:50;;;;;;;19.27;4.77;;;;;;;;;;5058821;28;20366;-84
2022/12/29 07:18:16;;;;;;;20.23;3.33;;;;;;;;;;5076163;28;20399;-84
2022/12/29 07:20:42;;;;;;;17.67;3.60;;;;;;;;;;5057606;28;20838;-84
2022/12/29 07:23:08;;;;;;;19.70;3.70;;;;;;;;;;5076086;28;20365;-85
2022/12/29 07:25:35;;;;;;;15.70;2.80;;;;;;;;;;5076022;28;20314;-85
2022/12/29 07:28:02;;;;;;;20.03;3.30;;;;;;;;;;5075522;28;20374;-86
2022/12/29 07:30:28;;;;;;;13.17;3.00;;;;;;;;;;5057587;28;20329;-85
2022/12/29 07:32:54;;;;;;;15.13;3.47;;;;;;;;;;5075452;28;20333;-83
2022/12/29 07:35:20;;;;;;;20.97;3.53;;;;;;;;;;5041893;28;20330;-84
2022/12/29 07:37:46;;;;;;;17.53;3.83;;;;;;;;;;5057956;28;20298;-85
2022/12/29 07:40:12;;;;;;;20.17;2.90;;;;;;;;;;5040815;28;20314;-86
2022/12/29 07:42:39;;;;;;;20.67;3.30;;;;;;;;;;5056893;28;20283;-86
2022/12/29 07:45:05;;;;;;;16.77;2.93;;;;;;;;;;5075068;28;20627;-85
2022/12/29 07:47:31;;;;;;;18.30;3.10;;;;;;;;;;5058255;28;20333;-87
2022/12/29 07:49:57;;;;;;;19.73;3.10;;;;;;;;;;5041637;28;20298;-86
2022/12/29 07:52:24;;;;;;;18.40;3.57;;;;;;;;;;5075088;28;20758;-85
2022/12/29 07:54:50;;;;;;;17.67;3.57;;;;;;;;;;5040890;28;20305;-84
2022/12/29 07:57:16;;;;;;;19.07;3.07;;;;;;;;;;5075006;28;20366;-87
2022/12/29 07:59:43;;;;;;;19.60;3.70;;;;;;;;;;5057302;28;20301;-85
2022/12/29 08:02:12;;;;;;;20.00;3.30;;;;;;;;;;5075160;28;20282;-86
2022/12/29 08:04:38;;;;;;;16.63;3.10;;;;;;;;;;5074563;28;20794;-88
2022/12/29 08:07:04;;;;;;;21.83;3.43;;;;;;;;;;5074917;28;20290;-84
2022/12/29 08:09:30;;;;;;;19.80;3.73;;;;;;;;;;5074787;28;20290;-83
2022/12/29 08:11:56;;;;;;;21.30;3.40;;;;;;;;;;5074644;28;20333;-83
2022/12/29 08:14:22;;;;;;;22.60;3.80;;;;;;;;;;5056767;28;20290;-80
2022/12/29 08:16:49;;;;;;;24.97;4.37;;;;;;;;;;5074676;28;20279;-80
2022/12/29 08:19:15;;;;;;;21.03;4.20;;;;;;;;;;5074461;28;20327;-82
2022/12/29 08:21:41;;;;;;;22.77;3.90;;;;;;;;;;5074497;28;20283;-82
2022/12/29 08:24:08;;;;;;;23.63;4.47;;;;;;;;;;5074428;28;20319;-82
2022/12/29 08:26:34;;;;;;;19.37;3.80;;;;;;;;;;5074460;28;20321;-86
2022/12/29 08:29:01;;;;;;;20.00;3.33;;;;;;;;;;5057439;28;20295;-80
2022/12/29 08:31:27;;;;;;;24.77;4.77;;;;;;;;;;5074305;28;20754;-85
2022/12/29 08:33:53;;;;;;;23.90;4.47;;;;;;;;;;5057430;28;20291;-87
2022/12/29 08:36:19;;;;;;;22.67;3.73;;;;;;;;;;5056797;28;20291;-83
2022/12/29 08:38:45;;;;;;;19.83;3.80;;;;;;;;;;5074091;28;20306;-84
2022/12/29 08:41:11;;;;;;;15.77;3.47;;;;;;;;;;5074048;28;20278;-83
2022/12/29 08:43:37;;;;;;;22.30;4.20;;;;;;;;;;5074326;28;20623;-85
2022/12/29 08:46:03;;;;;;;22.27;3.97;;;;;;;;;;5074561;28;20271;-83
2022/12/29 08:48:30;;;;;;;28.67;4.57;;;;;;;;;;5056933;28;20283;-84
2022/12/29 08:50:56;;;;;;;20.33;5.13;;;;;;;;;;5073933;28;20287;-84
2022/12/29 08:53:22;;;;;;;21.67;3.50;;;;;;;;;;5055980;28;20440;-82
2022/12/29 08:55:55;;;;;;;19.93;4.00;;;;;;;;;;5055859;28;20298;-85
2022/12/29 08:58:21;;;;;;;23.43;4.67;;;;;;;;;;5073843;28;20361;-85
2022/12/29 09:00:47;;;;;;;23.53;4.70;;;;;;;;;;5073999;28;20372;-84
2022/12/29 09:03:13;;;;;;;26.43;5.10;;;;;;;;;;5073689;28;20872;-84
2022/12/29 09:05:39;;;;;;;25.73;5.23;;;;;;;;;;5073662;28;20321;-82
2022/12/29 09:08:05;;;;;;;37.87;12.60;;;;;;;;;;5073616;28;20366;-80
2022/12/29 09:10:32;;;;;;;22.77;4.70;;;;;;;;;;5056198;28;20282;-84
2022/12/29 09:12:58;;;;;;;22.53;4.80;;;;;;;;;;5074379;28;20365;-83
2022/12/29 09:15:24;;;;;;;26.60;4.73;;;;;;;;;;5074377;28;20377;-83
2022/12/29 09:17:50;;;;;;;22.00;4.23;;;;;;;;;;5073522;28;20293;-84
2022/12/29 09:20:18;;;;;;;22.40;4.63;;;;;;;;;;5039598;28;20385;-84
2022/12/29 09:22:44;;;;;;;22.17;6.17;;;;;;;;;;5073536;28;20283;-83
2022/12/29 09:25:11;;;;;;;25.43;3.80;;;;;;;;;;5073961;28;20358;-83
2022/12/29 09:27:37;;;;;;;23.13;4.30;;;;;;;;;;5073346;28;20323;-83
2022/12/29 09:30:06;;;;;;;20.93;3.90;;;;;;;;;;5073696;28;20275;-87
2022/12/29 09:32:32;;;;;;;22.40;3.70;;;;;;;;;;5056227;28;20778;-85
2022/12/29 09:34:58;;;;;;;18.80;4.50;;;;;;;;;;5073381;28;20282;-86
2022/12/29 09:37:24;;;;;;;20.70;4.40;;;;;;;;;;5073458;28;20329;-85
2022/12/29 09:39:50;;;;;;;22.47;3.27;;;;;;;;;;5038826;28;20721;-85
2022/12/29 09:42:24;;;;;;;23.80;4.50;;;;;;;;;;5073250;28;20361;-87
2022/12/29 09:44:56;;;;;;;21.43;3.77;;;;;;;;;;5055305;28;20283;-88
2022/12/29 09:47:23;;;;;;;23.23;4.83;;;;;;;;;;5055615;28;20794;-87
2022/12/29 09:49:49;;;;;;;18.60;3.20;;;;;;;;;;5056254;28;20295;-88
2022/12/29 09:52:18;;;;;;;17.00;2.67;;;;;;;;;;5073726;28;20283;-87
2022/12/29 09:54:44;;;;;;;18.50;3.10;;;;;;;;;;5073644;28;20749;-89
2022/12/29 09:57:18;;;;;;;21.83;3.37;;;;;;;;;;5055187;28;20401;-89
2022/12/29 09:59:45;;;;;;;20.47;3.47;;;;;;;;;;5072841;28;20655;-88
2022/12/29 10:02:17;;;;;;;20.00;3.77;;;;;;;;;;5038878;28;20766;-87
2022/12/29 10:04:44;;;;;;;18.37;4.33;;;;;;;;;;5073645;28;20319;-89
2022/12/29 10:07:10;;;;;;;39.13;13.40;;;;;;;;;;5075405;28;20301;-84
2022/12/29 10:09:44;;;;;;;19.63;4.20;;;;;;;;;;5059447;28;20699;-87
2022/12/29 10:12:37;;;;;;;17.67;3.70;;;;;;;;;;5077159;28;20283;-85
2022/12/29 10:15:19;;;;;;;34.00;6.13;;;;;;;;;;5077053;28;20040;-87
2022/12/29 10:17:48;;;;;;;20.70;5.83;;;;;;;;;;5077302;28;20764;-82
2022/12/29 10:20:32;;;;;;;20.43;4.40;;;;;;;;;;5076860;28;20310;-83
2022/12/29 10:23:12;;;;;;;14.63;3.67;;;;;;;;;;5076934;28;20286;-82
2022/12/29 10:25:39;;;;;;;21.07;4.67;;;;;;;;;;5077295;28;20048;-86
2022/12/29 10:28:11;;;;;;;19.77;3.60;;;;;;;;;;5076779;28;20278;-84
2022/12/29 10:30:37;;;;;;;24.53;4.20;;;;;;;;;;5076936;28;20809;-78
2022/12/29 10:33:06;;;;;;;20.47;3.90;;;;;;;;;;5076712;28;20283;-79
2022/12/29 10:35:38;;;;;;;28.80;4.87;;;;;;;;;;5076580;28;20286;-79
2022/12/29 10:38:19;;;;;;;25.23;4.47;;;;;;;;;;5077012;28;20302;-79
2022/12/29 10:40:49;;;;;;;28.17;4.17;;;;;;;;;;5076705;28;20436;-79
2022/12/29 10:43:26;;;;;;;30.23;5.57;;;;;;;;;;5076723;28;20784;-80
2022/12/29 10:45:53;;;;;;;27.10;4.60;;;;;;;;;;5076371;28;20282;-80
2022/12/29 10:48:22;;;;;;;30.37;4.90;;;;;;;;;;5059205;28;20287;-79
2022/12/29 10:50:49;;;;;;;33.10;5.37;;;;;;;;;;5076297;28;20318;-81
2022/12/29 10:53:22;;;;;;;30.40;5.33;;;;;;;;;;5042016;28;20325;-79
2022/12/29 10:55:49;;;;;;;27.13;4.63;;;;;;;;;;5076547;28;20366;-79
2022/12/29 10:58:15;;;;;;;25.33;4.70;;;;;;;;;;5042044;28;20441;-83
2022/12/29 11:00:42;;;;;;;29.13;4.83;;;;;;;;;;5076029;28;20345;-80
2022/12/29 11:03:27;;;;;;;27.73;5.37;;;;;;;;;;5058941;28;20298;-78
2022/12/29 11:05:56;;;;;;;25.85;5.13;;;;;;;;;;5076041;28;20368;-79
2022/12/29 11:08:26;;;;;;;30.50;5.13;;;;;;;;;;5075952;28;20063;-80
2022/12/29 11:11:03;;;;;;;28.97;5.47;;;;;;;;;;5076263;28;20588;-80
2022/12/29 11:13:31;;;;;;;30.00;4.70;;;;;;;;;;5076490;28;20271;-80
2022/12/29 11:15:59;;;;;;;31.53;4.90;;;;;;;;;;5076354;28;20278;-86
2022/12/29 11:18:39;;;;;;;26.97;4.63;;;;;;;;;;5076227;28;20289;-81
2022/12/29 11:21:25;;;;;;;28.03;5.03;;;;;;;;;;5075756;28;20782;-78
2022/12/29 11:24:02;;;;;;;26.43;4.77;;;;;;;;;;5058249;28;20352;-80
2022/12/29 11:26:30;;;;;;;28.40;4.93;;;;;;;;;;5075863;28;20603;-77
2022/12/29 11:29:08;;;;;;;24.57;4.93;;;;;;;;;;5075597;28;20279;-81
2022/12/29 11:31:54;;;;;;;32.07;4.53;;;;;;;;;;5075994;28;20372;-81
2022/12/29 11:34:23;;;;;;;27.10;4.63;;;;;;;;;;5041518;28;20291;-80
2022/12/29 11:36:50;;;;;;;41.97;6.27;;;;;;;;;;5075506;28;20366;-85
2022/12/29 11:39:42;;;;;;;26.07;5.00;;;;;;;;;;5075323;28;20771;-81
2022/12/29 11:42:16;;;;;;;21.70;4.60;;;;;;;;;;5037435;28;20291;-81
2022/12/29 11:44:43;;;;;;;24.27;4.80;;;;;;;;;;5075347;28;20283;-84
2022/12/29 11:47:13;;;;;;;25.20;4.07;;;;;;;;;;5075277;28;20275;-83
2022/12/29 11:49:39;;;;;;;22.20;3.63;;;;;;;;;;5075491;28;20275;-83
2022/12/29 11:52:05;;;;;;;22.83;3.90;;;;;;;;;;5075191;28;20279;-85
2022/12/29 11:54:34;;;;;;;16.43;3.43;;;;;;;;;;5053885;28;20323;-83
2022/12/29 11:57:09;;;;;;;15.03;3.20;;;;;;;;;;5054948;28;20752;-84
2022/12/29 11:59:38;;;;;;;;;;;;;;;;;;5056226;28;20299;-82
2022/12/29 12:02:10;;;;;;;20.87;4.30;;;;;;;;;;5055057;28;19921;-81
2022/12/29 12:04:38;;;;;;;19.87;3.60;;;;;;;;;;5054939;28;20374;-81
2022/12/29 12:07:12;;;;;;;15.00;3.63;;;;;;;;;;5055476;28;20287;-80
2022/12/29 12:09:51;;;;;;;18.47;4.13;;;;;;;;;;5053922;28;20311;-81
2022/12/29 12:12:28;;;;;;;23.17;4.27;;;;;;;;;;5054799;28;20284;-80
2022/12/29 12:14:59;;;;;;;24.40;3.87;;;;;;;;;;5055342;28;20317;-82
2022/12/29 12:17:37;;;;;;;20.87;3.10;;;;;;;;;;5054055;28;20299;-83
2022/12/29 12:20:10;;;;;;;17.97;3.47;;;;;;;;;;5055476;28;20633;-82
2022/12/29 12:22:43;;;;;;;21.77;3.93;;;;;;;;;;5054408;28;20370;-83
2022/12/29 12:25:13;;;;;;;20.00;4.13;;;;;;;;;;5054552;28;20315;-84
2022/12/29 12:27:44;;;;;;;22.23;3.50;;;;;;;;;;5053302;28;20306;-83
2022/12/29 12:30:17;;;;;;;16.70;3.87;;;;;;;;;;5053848;28;20796;-83
2022/12/29 12:32:53;;;;;;;15.70;2.80;;;;;;;;;;5054346;28;20357;-83
2022/12/29 12:35:27;;;;;;;18.53;3.10;;;;;;;;;;5054883;28;20279;-83
2022/12/29 12:38:02;;;;;;;18.60;2.80;;;;;;;;;;5054371;28;20283;-82
2022/12/29 12:40:31;;;;;;;14.52;3.10;;;;;;;;;;5054199;28;20322;-82
2022/12/29 12:43:16;;;;;;;16.93;4.43;;;;;;;;;;5052849;28;20103;-85
2022/12/29 12:45:48;;;;;;;11.80;3.03;;;;;;;;;;5053814;28;20767;-83
2022/12/29 12:48:17;;;;;;;15.77;3.30;;;;;;;;;;5053099;28;20044;-82
2022/12/29 12:50:46;;;;;;;15.97;3.40;;;;;;;;;;5053372;28;20381;-82
2022/12/29 12:53:12;;;;;;;12.93;2.30;;;;;;;;;;5058400;28;20334;-81
2022/12/29 12:55:53;;;;;;;12.47;2.73;;;;;;;;;;5073973;28;20287;-82
2022/12/29 12:58:32;;;;;;;13.20;2.70;;;;;;;;;;5056629;28;20370;-81
2022/12/29 13:01:17;;;;;;;17.97;3.90;;;;;;;;;;5073777;28;20409;-82
2022/12/29 13:04:15;;;;;;;14.43;3.43;;;;;;;;;;5073723;28;20278;-83
2022/12/29 13:06:56;;;;;;;18.90;2.57;;;;;;;;;;5019031;28;20374;-82
2022/12/29 13:09:28;;;;;;;18.03;3.47;;;;;;;;;;5073707;28;20271;-85
2022/12/29 13:12:14;;;;;;;17.13;2.53;;;;;;;;;;5074173;28;20337;-85
2022/12/29 13:14:46;;;;;;;14.13;2.77;;;;;;;;;;5073583;28;20287;-83
2022/12/29 13:17:36;;;;;;;11.93;2.57;;;;;;;;;;5074346;28;20305;-84
2022/12/29 13:20:11;;;;;;;13.43;3.20;;;;;;;;;;5056492;28;20398;-83
2022/12/29 13:22:52;;;;;;;14.00;2.50;;;;;;;;;;5074327;28;20369;-82
2022/12/29 13:25:37;;;;;;;12.47;2.63;;;;;;;;;;5055741;28;20388;-86
2022/12/29 13:28:11;;;;;;;10.45;2.75;;;;;;;;;;5073467;28;20278;-81
2022/12/29 13:30:57;;;;;;;17.47;2.73;;;;;;;;;;5056026;28;20419;-81
2022/12/29 13:33:29;;;;;;;10.05;2.92;;;;;;;;;;5055777;28;20385;-82
2022/12/29 13:36:00;;;;;;;15.10;2.60;;;;;;;;;;5073900;28;20094;-81
2022/12/29 13:38:31;;;;;;;15.67;2.50;;;;;;;;;;5055950;28;20303;-82
2022/12/29 13:41:01;;;;;;;14.33;2.60;;;;;;;;;;5054992;28;20382;-82
2022/12/29 13:43:28;;;;;;;11.33;2.33;;;;;;;;;;5055604;28;20327;-84
2022/12/29 13:46:01;;;;;;;17.13;2.60;;;;;;;;;;5073185;28;20283;-83
2022/12/29 13:48:36;;;;;;;14.33;2.80;;;;;;;;;;5073257;28;20289;-82
2022/12/29 13:51:03;;;;;;;13.70;2.20;;;;;;;;;;5073229;28;20362;-87
2022/12/29 13:53:30;;;;;;;12.50;2.50;;;;;;;;;;5055095;28;20323;-80
2022/12/29 13:55:56;;;;;;;12.80;2.30;;;;;;;;;;5073064;28;20294;-81
2022/12/29 13:58:25;;;;;;;17.17;2.33;;;;;;;;;;5073089;28;20751;-81
2022/12/29 14:00:51;;;;;;;18.13;3.17;;;;;;;;;;5072941;28;20387;-80
2022/12/29 14:03:36;;;;;;;15.03;2.77;;;;;;;;;;5073087;28;20325;-80
2022/12/29 14:06:11;;;;;;;10.20;2.20;;;;;;;;;;5073284;28;20279;-80
2022/12/29 14:08:37;;;;;;;14.03;3.20;;;;;;;;;;5072549;28;20400;-83
2022/12/29 14:11:09;;;;;;;16.43;2.87;;;;;;;;;;5072627;28;20501;-81
2022/12/29 14:13:38;;;;;;;12.67;2.30;;;;;;;;;;5072939;28;20283;-80
2022/12/29 14:16:04;;;;;;;20.23;3.17;;;;;;;;;;5073085;28;20770;-83
2022/12/29 14:18:32;;;;;;;15.77;2.53;;;;;;;;;;5072948;28;20328;-84
2022/12/29 14:20:59;;;;;;;17.57;3.10;;;;;;;;;;5054900;28;20360;-84
2022/12/29 14:23:26;;;;;;;12.20;2.57;;;;;;;;;;5056034;28;20295;-84
2022/12/29 14:26:00;;;;;;;14.17;2.40;;;;;;;;;;5055161;28;20282;-83
2022/12/29 14:28:27;;;;;;;14.47;3.10;;;;;;;;;;5072876;28;20290;-84
2022/12/29 14:30:54;;;;;;;15.53;3.13;;;;;;;;;;5072799;28;20290;-87
2022/12/29 14:33:21;;;;;;;14.50;3.10;;;;;;;;;;5072826;28;20322;-87
2022/12/29 14:35:51;;;;;;;23.07;4.67;;;;;;;;;;5055184;28;20283;-87
2022/12/29 14:38:19;;;;;;;15.83;3.53;;;;;;;;;;5073061;28;20287;-86
2022/12/29 14:40:47;;;;;;;18.67;3.07;;;;;;;;;;5072703;28;20317;-84
2022/12/29 14:43:15;;;;;;;20.53;4.00;;;;;;;;;;5072668;28;20286;-84
2022/12/29 14:45:42;;;;;;;21.00;4.23;;;;;;;;;;5072750;28;20311;-85
2022/12/29 14:48:27;;;;;;;17.63;2.97;;;;;;;;;;5072643;28;20361;-85
2022/12/29 14:50:53;;;;;;;18.73;3.42;;;;;;;;;;5072695;28;20362;-85
2022/12/29 14:53:38;;;;;;;16.40;3.83;;;;;;;;;;5056607;28;20496;-83
2022/12/29 14:56:04;;;;;;;19.48;3.75;;;;;;;;;;5076125;28;20286;-85
2022/12/29 14:58:32;;;;;;;17.50;4.00;;;;;;;;;;5076200;28;20099;-84
2022/12/29 15:00:59;;;;;;;20.67;5.47;;;;;;;;;;5058414;28;20333;-86
2022/12/29 15:03:29;;;;;;;16.50;2.87;;;;;;;;;;5058142;28;20287;-87
2022/12/29 15:06:06;;;;;;;15.77;2.50;;;;;;;;;;5076158;28;20370;-87
2022/12/29 15:08:34;;;;;;;15.93;3.60;;;;;;;;;;5076009;28;20804;-85
2022/12/29 15:11:10;;;;;;;16.03;3.30;;;;;;;;;;5076004;28;20420;-87
2022/12/29 15:13:42;;;;;;;21.73;3.43;;;;;;;;;;5076247;28;20279;-87
2022/12/29 15:16:30;;;;;;;21.73;3.53;;;;;;;;;;5058473;28;20366;-88
2022/12/29 15:18:56;;;;;;;14.70;2.60;;;;;;;;;;5076014;28;20383;-80
2022/12/29 15:21:24;;;;;;;17.00;2.90;;;;;;;;;;5075800;28;20334;-80
2022/12/29 15:23:51;;;;;;;16.10;3.73;;;;;;;;;;5057378;28;20324;-80